createdAt,value
2023-08-12T00:03:40.921Z,98965.36
2023-08-12T00:08:48.092Z,98968.45
2023-08-12T00:13:55.604Z,98965.60
2023-08-12T00:19:03.311Z,98966.84
2023-08-12T00:24:10.734Z,98967.48
2023-08-12T00:29:18.013Z,98970.77
2023-08-12T00:34:25.173Z,98964.77
2023-08-12T00:39:32.580Z,98959.93
2023-08-12T00:44:39.593Z,98961.91
2023-08-12T00:49:47.343Z,98960.58
2023-08-12T00:54:54.412Z,98956.30
2023-08-12T01:00:02.318Z,98956.36
2023-08-12T01:05:10.165Z,98957.07
2023-08-12T01:10:18.349Z,98953.02
2023-08-12T01:15:27.814Z,98950.81
2023-08-12T01:20:35.011Z,98953.38
2023-08-12T01:25:42.314Z,98951.77
2023-08-12T01:30:52.462Z,98954.05
2023-08-12T01:36:03.793Z,98955.52
2023-08-12T01:41:12.534Z,98959.91
2023-08-12T01:46:19.916Z,98961.45
2023-08-12T01:51:27.343Z,98964.14
2023-08-12T01:56:34.524Z,98968.67
2023-08-12T02:01:41.956Z,98972.02
2023-08-12T02:06:49.119Z,98970.84
2023-08-12T02:11:56.440Z,98969.02
2023-08-12T02:17:03.631Z,98972.11
2023-08-12T02:22:12.121Z,98971.66
2023-08-12T02:27:19.386Z,98978.64
2023-08-12T02:32:26.692Z,98977.30
2023-08-12T02:37:33.926Z,98978.13
2023-08-12T02:42:41.085Z,98985.52
2023-08-12T02:47:48.335Z,98982.11
2023-08-12T02:52:55.523Z,98978.20
2023-08-12T02:58:03.055Z,98980.06
2023-08-12T03:03:10.189Z,98973.80
2023-08-12T03:08:17.422Z,98978.39
2023-08-12T03:13:24.624Z,98973.49
2023-08-12T03:18:32.032Z,98968.73
2023-08-12T03:23:40.397Z,98965.33
2023-08-12T03:28:47.678Z,98964.93
2023-08-12T03:33:55.048Z,98965.72
2023-08-12T03:39:02.445Z,98968.52
2023-08-12T03:44:09.680Z,98967.65
2023-08-12T03:49:16.890Z,98968.45
2023-08-12T03:54:24.092Z,98969.23
2023-08-12T03:59:31.161Z,98967.00
2023-08-12T04:04:38.483Z,98965.71
2023-08-12T04:09:45.752Z,98969.64
2023-08-12T04:14:52.782Z,98965.29
2023-08-12T04:19:59.922Z,98964.62
2023-08-12T04:25:07.432Z,98961.77
2023-08-12T04:30:15.599Z,98963.42
2023-08-12T04:35:22.682Z,98969.06
2023-08-12T04:40:30.376Z,98973.39
2023-08-12T04:45:37.697Z,98974.58
2023-08-12T04:50:45.161Z,98975.23
2023-08-12T04:55:54.697Z,98975.10
2023-08-12T05:01:03.643Z,98976.27
2023-08-12T05:06:11.261Z,98974.30
2023-08-12T05:11:18.645Z,98975.13
2023-08-12T05:16:25.635Z,98974.08
2023-08-12T05:21:32.618Z,98971.91
2023-08-12T05:26:39.754Z,98972.63
2023-08-12T05:31:47.126Z,98968.61
2023-08-12T05:36:54.402Z,98974.54
2023-08-12T05:42:01.778Z,98980.42
2023-08-12T05:47:09.006Z,98975.84
2023-08-12T05:52:16.568Z,98976.55
2023-08-12T05:57:25.325Z,98974.50
2023-08-12T06:02:34.189Z,98971.72
2023-08-12T06:07:41.193Z,98973.84
2023-08-12T06:12:48.312Z,98978.55
2023-08-12T06:17:55.731Z,98973.81
2023-08-12T06:23:03.119Z,98976.04
2023-08-12T06:28:10.891Z,98979.15
2023-08-12T06:33:18.277Z,98980.52
2023-08-12T06:38:25.197Z,98974.74
2023-08-12T06:43:32.535Z,98973.56
2023-08-12T06:48:39.764Z,98968.02
2023-08-12T06:53:46.718Z,98966.73
2023-08-12T06:58:54.286Z,98969.05
2023-08-12T07:04:01.611Z,98968.15
2023-08-12T07:09:09.546Z,98967.75
2023-08-12T07:14:17.246Z,98967.23
2023-08-12T07:19:24.730Z,98966.83
2023-08-12T07:24:31.679Z,98971.65
2023-08-12T07:29:38.851Z,98967.11
2023-08-12T07:34:46.270Z,98964.11
2023-08-12T07:39:54.118Z,98954.83
2023-08-12T07:45:01.756Z,98949.36
2023-08-12T07:50:09.763Z,98947.36
2023-08-12T07:55:17.528Z,98945.49
2023-08-12T08:00:25.267Z,98941.46
2023-08-12T08:05:32.380Z,98937.52
2023-08-12T08:10:39.770Z,98936.85
2023-08-12T08:15:47.244Z,98938.37
2023-08-12T08:20:54.474Z,98939.73
2023-08-12T08:26:02.080Z,98936.96
2023-08-12T08:31:09.286Z,98938.18
2023-08-12T08:36:16.572Z,98938.01
2023-08-12T08:41:24.633Z,98938.25
2023-08-12T08:46:32.448Z,98937.15
2023-08-12T08:51:39.733Z,98929.02
2023-08-12T08:56:52.461Z,98931.60
2023-08-12T09:02:07.603Z,98931.52
2023-08-12T09:07:15.423Z,98931.39
2023-08-12T09:12:23.174Z,98928.66
2023-08-12T09:17:30.992Z,98927.20
2023-08-12T09:22:38.084Z,98917.14
2023-08-12T09:27:45.621Z,98908.95
2023-08-12T09:33:03.801Z,98903.75
2023-08-12T09:38:14.790Z,98896.94
2023-08-12T09:43:26.374Z,98889.63
2023-08-12T09:48:34.375Z,98890.60
2023-08-12T09:53:42.110Z,98884.61
2023-08-12T09:58:51.147Z,98885.02
2023-08-12T10:03:59.407Z,98881.69
2023-08-12T10:09:10.203Z,98874.38
2023-08-12T10:14:18.143Z,98871.03
2023-08-12T10:19:26.920Z,98863.42
2023-08-12T10:24:34.540Z,98864.48
2023-08-12T10:29:42.052Z,98864.73
2023-08-12T10:34:57.320Z,98862.84
2023-08-12T10:40:07.897Z,98862.04
2023-08-12T10:45:16.016Z,98857.83
2023-08-12T10:50:23.984Z,98854.40
2023-08-12T10:55:31.386Z,98852.44
2023-08-12T11:00:38.896Z,98843.54
2023-08-12T11:05:46.985Z,98839.83
2023-08-12T11:10:54.402Z,98834.67
2023-08-12T11:16:11.353Z,98832.42
2023-08-12T11:21:18.993Z,98824.88
2023-08-12T11:26:27.014Z,98824.98
2023-08-12T11:31:35.015Z,98820.06
2023-08-12T11:36:42.647Z,98821.41
2023-08-12T11:41:49.902Z,98817.48
2023-08-12T11:46:57.241Z,98816.55
2023-08-12T11:52:05.059Z,98809.88
2023-08-12T11:57:12.482Z,98802.09
2023-08-12T12:02:20.384Z,98794.14
2023-08-12T12:07:29.046Z,98783.73
2023-08-12T12:12:38.089Z,98776.89
2023-08-12T12:17:45.377Z,98771.08
2023-08-12T12:22:52.723Z,98767.27
2023-08-12T12:28:00.165Z,98764.90
2023-08-12T12:33:08.932Z,98754.64
2023-08-12T12:38:16.292Z,98748.20
2023-08-12T12:43:23.586Z,98752.72
2023-08-12T12:48:31.100Z,98750.02
2023-08-12T12:53:38.561Z,98744.06
2023-08-12T12:58:46.234Z,98736.80
2023-08-12T13:03:53.583Z,98733.15
2023-08-12T13:09:01.293Z,98731.71
2023-08-12T13:14:09.573Z,98725.58
2023-08-12T13:19:17.024Z,98726.85
2023-08-12T13:24:24.640Z,98725.90
2023-08-12T13:29:33.116Z,98722.87
2023-08-12T13:34:41.264Z,98713.41
2023-08-12T13:39:48.809Z,98707.04
2023-08-12T13:44:57.928Z,98706.07
2023-08-12T13:50:07.464Z,98697.15
2023-08-12T13:55:15.182Z,98694.45
2023-08-12T14:00:22.514Z,98695.16
2023-08-12T14:05:29.982Z,98683.16
2023-08-12T14:10:37.583Z,98678.21
2023-08-12T14:15:45.844Z,98679.08
2023-08-12T14:20:53.895Z,98672.23
2023-08-12T14:26:02.834Z,98667.14
2023-08-12T14:31:11.962Z,98665.94
2023-08-12T14:36:20.542Z,98661.65
2023-08-12T14:41:28.092Z,98657.64
2023-08-12T14:46:36.105Z,98653.81
2023-08-12T14:51:43.971Z,98653.56
2023-08-12T14:56:51.790Z,98647.84
2023-08-12T15:01:59.513Z,98643.13
2023-08-12T15:07:07.708Z,98637.32
2023-08-12T15:12:14.969Z,98630.95
2023-08-12T15:17:22.854Z,98622.19
2023-08-12T15:22:30.720Z,98614.13
2023-08-12T15:27:38.528Z,98604.17
2023-08-12T15:32:46.694Z,98607.17
2023-08-12T15:37:54.460Z,98605.63
2023-08-12T15:43:02.400Z,98608.84
2023-08-12T15:48:10.219Z,98605.73
2023-08-12T15:53:18.002Z,98602.73
2023-08-12T15:58:26.223Z,98602.70
2023-08-12T16:03:33.727Z,98598.70
2023-08-12T16:08:41.732Z,98601.09
2023-08-12T16:13:49.272Z,98602.52
2023-08-12T16:18:56.883Z,98606.02
2023-08-12T16:24:04.407Z,98599.72
2023-08-12T16:29:12.132Z,98599.01
2023-08-12T16:34:19.300Z,98599.54
2023-08-12T16:39:26.988Z,98601.67
2023-08-12T16:44:34.298Z,98598.31
2023-08-12T16:49:41.522Z,98601.12
2023-08-12T16:54:48.881Z,98600.61
2023-08-12T16:59:56.507Z,98597.92
2023-08-12T17:05:03.632Z,98596.80
2023-08-12T17:10:11.254Z,98595.76
2023-08-12T17:15:18.455Z,98595.20
2023-08-12T17:20:26.312Z,98596.40
2023-08-12T17:25:33.286Z,98588.36
2023-08-12T17:30:40.748Z,98587.73
2023-08-12T17:35:48.571Z,98585.89
2023-08-12T17:40:56.602Z,98586.52
2023-08-12T17:46:04.951Z,98591.23
2023-08-12T17:51:14.563Z,98588.60
2023-08-12T17:56:22.531Z,98587.58
2023-08-12T18:01:29.778Z,98592.90
2023-08-12T18:06:37.285Z,98596.48
2023-08-12T18:11:44.922Z,98602.37
2023-08-12T18:16:53.443Z,98604.13
2023-08-12T18:22:01.226Z,98609.92
2023-08-12T18:27:08.683Z,98611.13
2023-08-12T18:32:16.821Z,98611.77
2023-08-12T18:37:25.292Z,98615.59
2023-08-12T18:42:36.254Z,98614.00
2023-08-12T18:47:44.380Z,98615.25
2023-08-12T18:52:53.181Z,98615.96
2023-08-12T18:58:01.132Z,98620.91
2023-08-12T19:03:13.027Z,98627.36
2023-08-12T19:08:22.876Z,98630.06
2023-08-12T19:13:31.345Z,98633.48
2023-08-12T19:18:39.697Z,98636.10
2023-08-12T19:23:51.151Z,98635.36
2023-08-12T19:29:01.093Z,98633.88
2023-08-12T19:34:10.067Z,98634.20
2023-08-12T19:39:18.713Z,98631.83
2023-08-12T19:44:26.945Z,98628.15
2023-08-12T19:49:35.634Z,98626.32
2023-08-12T19:54:43.941Z,98626.32
2023-08-12T19:59:52.123Z,98622.82
2023-08-12T20:05:01.570Z,98633.30
2023-08-12T20:10:11.268Z,98632.67
2023-08-12T20:15:19.621Z,98629.80
2023-08-12T20:20:27.993Z,98625.38
2023-08-12T20:25:37.745Z,98631.21
2023-08-12T20:30:46.142Z,98640.70
2023-08-12T20:35:54.031Z,98647.45
2023-08-12T20:41:01.938Z,98656.04
2023-08-12T20:46:10.055Z,98660.30
2023-08-12T20:51:18.296Z,98659.72
2023-08-12T20:56:26.764Z,98666.28
2023-08-12T21:01:34.297Z,98670.92
2023-08-12T21:06:43.182Z,98671.39
2023-08-12T21:11:52.912Z,98668.14
2023-08-12T21:17:01.041Z,98662.30
2023-08-12T21:22:08.492Z,98654.36
2023-08-12T21:27:16.523Z,98647.35
2023-08-12T21:32:24.018Z,98644.33
2023-08-12T21:37:32.014Z,98637.73
2023-08-12T21:42:40.724Z,98630.04
2023-08-12T21:47:48.839Z,98625.77
2023-08-12T21:52:56.417Z,98619.52
2023-08-12T21:58:04.171Z,98614.70
2023-08-12T22:03:11.733Z,98604.91
2023-08-12T22:08:19.536Z,98606.29
2023-08-12T22:13:27.028Z,98597.93
2023-08-12T22:18:34.149Z,98592.46
2023-08-12T22:23:42.973Z,98595.92
2023-08-12T22:28:50.244Z,98597.47
2023-08-12T22:33:58.094Z,98599.05
2023-08-12T22:39:06.014Z,98610.50
2023-08-12T22:44:13.292Z,98615.56
2023-08-12T22:49:20.303Z,98614.42
2023-08-12T22:54:27.509Z,98601.64
2023-08-12T22:59:34.940Z,98599.66
2023-08-12T23:04:42.333Z,98601.19
2023-08-12T23:09:49.394Z,98608.05
2023-08-12T23:14:56.802Z,98612.94
2023-08-12T23:20:05.179Z,98612.20
2023-08-12T23:25:13.565Z,98612.20
2023-08-12T23:30:20.804Z,98606.48
2023-08-12T23:35:27.990Z,98609.36
2023-08-12T23:40:36.442Z,98610.54
2023-08-12T23:45:43.920Z,98611.09
2023-08-12T23:50:53.382Z,98605.98
2023-08-12T23:56:00.310Z,98599.61
